sensor_id;sensor_type;location;lat;lon;timestamp;P1;durP1;ratioP1;P2;durP2;ratioP2
4462;SDS011;2244;50.200;8.220;2023-06-26T00:00:56;13.40;;;6.47;;
4462;SDS011;2244;50.200;8.220;2023-06-26T00:03:23;12.27;;;6.20;;
4462;SDS011;2244;50.200;8.220;2023-06-26T00:05:50;12.87;;;6.40;;
4462;SDS011;2244;50.200;8.220;2023-06-26T00:08:18;13.73;;;6.87;;
4462;SDS011;2244;50.200;8.220;2023-06-26T00:10:45;14.07;;;7.20;;
4462;SDS011;2244;50.200;8.220;2023-06-26T00:13:13;14.03;;;6.67;;
4462;SDS011;2244;50.200;8.220;2023-06-26T00:15:41;12.70;;;6.30;;
4462;SDS011;2244;50.200;8.220;2023-06-26T00:18:08;13.70;;;6.60;;
4462;SDS011;2244;50.200;8.220;2023-06-26T00:20:36;16.60;;;6.07;;
4462;SDS011;2244;50.200;8.220;2023-06-26T00:23:04;13.47;;;6.50;;
4462;SDS011;2244;50.200;8.220;2023-06-26T00:25:34;13.80;;;6.80;;
4462;SDS011;2244;50.200;8.220;2023-06-26T00:28:01;13.93;;;6.20;;
4462;SDS011;2244;50.200;8.220;2023-06-26T00:30:29;14.30;;;6.63;;
4462;SDS011;2244;50.200;8.220;2023-06-26T00:32:57;13.30;;;6.47;;
4462;SDS011;2244;50.200;8.220;2023-06-26T00:35:24;13.90;;;6.97;;
4462;SDS011;2244;50.200;8.220;2023-06-26T00:37:51;15.20;;;6.53;;
4462;SDS011;2244;50.200;8.220;2023-06-26T00:40:19;12.70;;;6.30;;
4462;SDS011;2244;50.200;8.220;2023-06-26T00:42:46;15.17;;;7.23;;
4462;SDS011;2244;50.200;8.220;2023-06-26T00:45:14;13.00;;;6.83;;
4462;SDS011;2244;50.200;8.220;2023-06-26T00:47:43;16.30;;;7.10;;
4462;SDS011;2244;50.200;8.220;2023-06-26T00:50:10;14.43;;;7.00;;
4462;SDS011;2244;50.200;8.220;2023-06-26T00:52:38;14.33;;;7.57;;
4462;SDS011;2244;50.200;8.220;2023-06-26T00:55:06;17.87;;;7.13;;
4462;SDS011;2244;50.200;8.220;2023-06-26T00:57:34;15.10;;;7.40;;
4462;SDS011;2244;50.200;8.220;2023-06-26T01:00:02;12.80;;;6.37;;
4462;SDS011;2244;50.200;8.220;2023-06-26T01:02:30;13.07;;;6.30;;
4462;SDS011;2244;50.200;8.220;2023-06-26T01:05:01;12.90;;;6.80;;
4462;SDS011;2244;50.200;8.220;2023-06-26T01:07:32;14.30;;;6.63;;
4462;SDS011;2244;50.200;8.220;2023-06-26T01:10:09;15.40;;;7.13;;
4462;SDS011;2244;50.200;8.220;2023-06-26T01:12:33;14.33;;;7.10;;
4462;SDS011;2244;50.200;8.220;2023-06-26T01:15:01;14.47;;;7.27;;
4462;SDS011;2244;50.200;8.220;2023-06-26T01:17:28;12.93;;;6.33;;
4462;SDS011;2244;50.200;8.220;2023-06-26T01:19:59;15.80;;;7.17;;
4462;SDS011;2244;50.200;8.220;2023-06-26T01:22:31;14.80;;;7.70;;
4462;SDS011;2244;50.200;8.220;2023-06-26T01:27:27;15.20;;;7.30;;
4462;SDS011;2244;50.200;8.220;2023-06-26T01:29:56;15.40;;;7.57;;
4462;SDS011;2244;50.200;8.220;2023-06-26T01:32:24;15.40;;;7.17;;
4462;SDS011;2244;50.200;8.220;2023-06-26T01:34:52;15.30;;;8.10;;
4462;SDS011;2244;50.200;8.220;2023-06-26T01:37:19;14.60;;;7.50;;
4462;SDS011;2244;50.200;8.220;2023-06-26T01:39:46;14.50;;;6.70;;
4462;SDS011;2244;50.200;8.220;2023-06-26T01:42:14;14.10;;;6.60;;
4462;SDS011;2244;50.200;8.220;2023-06-26T01:44:43;14.33;;;6.63;;
4462;SDS011;2244;50.200;8.220;2023-06-26T01:47:10;14.53;;;7.00;;
4462;SDS011;2244;50.200;8.220;2023-06-26T01:49:47;13.47;;;6.90;;
4462;SDS011;2244;50.200;8.220;2023-06-26T01:55:05;14.90;;;6.27;;
4462;SDS011;2244;50.200;8.220;2023-06-26T01:57:32;14.77;;;6.10;;
4462;SDS011;2244;50.200;8.220;2023-06-26T02:00:02;14.57;;;6.50;;
4462;SDS011;2244;50.200;8.220;2023-06-26T02:02:30;12.70;;;6.03;;
4462;SDS011;2244;50.200;8.220;2023-06-26T02:04:57;12.90;;;6.60;;
4462;SDS011;2244;50.200;8.220;2023-06-26T02:07:25;14.90;;;7.13;;
4462;SDS011;2244;50.200;8.220;2023-06-26T02:09:52;14.20;;;6.80;;
4462;SDS011;2244;50.200;8.220;2023-06-26T02:12:20;15.33;;;6.90;;
4462;SDS011;2244;50.200;8.220;2023-06-26T02:14:47;13.67;;;6.60;;
4462;SDS011;2244;50.200;8.220;2023-06-26T02:17:16;14.43;;;7.03;;
4462;SDS011;2244;50.200;8.220;2023-06-26T02:19:44;13.00;;;6.50;;
4462;SDS011;2244;50.200;8.220;2023-06-26T02:22:13;14.13;;;6.17;;
4462;SDS011;2244;50.200;8.220;2023-06-26T02:24:42;15.10;;;6.50;;
4462;SDS011;2244;50.200;8.220;2023-06-26T02:27:09;14.70;;;7.00;;
4462;SDS011;2244;50.200;8.220;2023-06-26T02:29:37;15.50;;;7.23;;
4462;SDS011;2244;50.200;8.220;2023-06-26T02:32:04;13.90;;;6.30;;
4462;SDS011;2244;50.200;8.220;2023-06-26T02:34:32;12.90;;;6.33;;
4462;SDS011;2244;50.200;8.220;2023-06-26T02:37:00;14.40;;;6.23;;
4462;SDS011;2244;50.200;8.220;2023-06-26T02:39:27;15.77;;;7.27;;
4462;SDS011;2244;50.200;8.220;2023-06-26T02:41:55;14.00;;;6.60;;
4462;SDS011;2244;50.200;8.220;2023-06-26T02:44:22;13.40;;;6.93;;
4462;SDS011;2244;50.200;8.220;2023-06-26T02:46:50;13.30;;;6.70;;
4462;SDS011;2244;50.200;8.220;2023-06-26T02:49:17;13.20;;;6.23;;
4462;SDS011;2244;50.200;8.220;2023-06-26T02:51:46;14.33;;;7.10;;
4462;SDS011;2244;50.200;8.220;2023-06-26T02:54:14;13.90;;;6.97;;
4462;SDS011;2244;50.200;8.220;2023-06-26T02:56:41;14.17;;;7.00;;
4462;SDS011;2244;50.200;8.220;2023-06-26T02:59:10;13.53;;;6.80;;
4462;SDS011;2244;50.200;8.220;2023-06-26T03:01:38;14.90;;;7.33;;
4462;SDS011;2244;50.200;8.220;2023-06-26T03:04:05;13.10;;;6.97;;
4462;SDS011;2244;50.200;8.220;2023-06-26T03:06:33;13.20;;;6.60;;
4462;SDS011;2244;50.200;8.220;2023-06-26T03:09:00;14.23;;;6.33;;
4462;SDS011;2244;50.200;8.220;2023-06-26T03:11:28;17.37;;;6.50;;
4462;SDS011;2244;50.200;8.220;2023-06-26T03:13:57;13.60;;;6.40;;
4462;SDS011;2244;50.200;8.220;2023-06-26T03:16:24;13.40;;;6.37;;
4462;SDS011;2244;50.200;8.220;2023-06-26T03:18:51;16.83;;;6.77;;
4462;SDS011;2244;50.200;8.220;2023-06-26T03:21:19;13.87;;;6.30;;
4462;SDS011;2244;50.200;8.220;2023-06-26T03:23:46;12.50;;;6.10;;
4462;SDS011;2244;50.200;8.220;2023-06-26T03:26:14;13.53;;;6.13;;
4462;SDS011;2244;50.200;8.220;2023-06-26T03:28:41;13.80;;;6.50;;
4462;SDS011;2244;50.200;8.220;2023-06-26T03:31:11;13.33;;;6.10;;
4462;SDS011;2244;50.200;8.220;2023-06-26T03:33:40;14.80;;;6.73;;
4462;SDS011;2244;50.200;8.220;2023-06-26T03:36:07;14.40;;;6.50;;
4462;SDS011;2244;50.200;8.220;2023-06-26T03:38:35;15.70;;;6.50;;
4462;SDS011;2244;50.200;8.220;2023-06-26T03:41:03;14.17;;;7.43;;
4462;SDS011;2244;50.200;8.220;2023-06-26T03:43:30;18.40;;;7.90;;
4462;SDS011;2244;50.200;8.220;2023-06-26T03:45:58;15.00;;;7.10;;
4462;SDS011;2244;50.200;8.220;2023-06-26T03:48:25;14.93;;;7.23;;
4462;SDS011;2244;50.200;8.220;2023-06-26T03:50:53;12.60;;;6.30;;
4462;SDS011;2244;50.200;8.220;2023-06-26T03:53:20;13.60;;;6.57;;
4462;SDS011;2244;50.200;8.220;2023-06-26T03:55:47;13.30;;;6.13;;
4462;SDS011;2244;50.200;8.220;2023-06-26T03:58:15;14.87;;;6.70;;
4462;SDS011;2244;50.200;8.220;2023-06-26T04:00:42;11.93;;;6.20;;
4462;SDS011;2244;50.200;8.220;2023-06-26T04:03:10;13.20;;;6.50;;
4462;SDS011;2244;50.200;8.220;2023-06-26T04:05:37;12.97;;;6.47;;
4462;SDS011;2244;50.200;8.220;2023-06-26T04:08:05;13.30;;;6.10;;
4462;SDS011;2244;50.200;8.220;2023-06-26T04:10:33;13.27;;;6.40;;
4462;SDS011;2244;50.200;8.220;2023-06-26T04:13:02;12.53;;;6.30;;
4462;SDS011;2244;50.200;8.220;2023-06-26T04:15:30;12.80;;;6.13;;
4462;SDS011;2244;50.200;8.220;2023-06-26T04:17:57;17.00;;;6.20;;
4462;SDS011;2244;50.200;8.220;2023-06-26T04:20:25;13.63;;;5.97;;
4462;SDS011;2244;50.200;8.220;2023-06-26T04:22:52;14.97;;;6.80;;
4462;SDS011;2244;50.200;8.220;2023-06-26T04:25:20;12.00;;;5.77;;
4462;SDS011;2244;50.200;8.220;2023-06-26T04:27:47;13.70;;;5.50;;
4462;SDS011;2244;50.200;8.220;2023-06-26T04:30:15;13.17;;;5.90;;
4462;SDS011;2244;50.200;8.220;2023-06-26T04:32:42;11.37;;;5.40;;
4462;SDS011;2244;50.200;8.220;2023-06-26T04:35:10;12.80;;;6.53;;
4462;SDS011;2244;50.200;8.220;2023-06-26T04:37:37;13.30;;;5.80;;
4462;SDS011;2244;50.200;8.220;2023-06-26T04:40:05;12.93;;;6.60;;
4462;SDS011;2244;50.200;8.220;2023-06-26T04:42:35;13.37;;;5.60;;
4462;SDS011;2244;50.200;8.220;2023-06-26T04:45:03;14.83;;;8.17;;
4462;SDS011;2244;50.200;8.220;2023-06-26T04:47:30;12.33;;;6.30;;
4462;SDS011;2244;50.200;8.220;2023-06-26T04:49:58;13.17;;;7.20;;
4462;SDS011;2244;50.200;8.220;2023-06-26T04:52:25;14.63;;;7.03;;
4462;SDS011;2244;50.200;8.220;2023-06-26T04:54:53;14.27;;;6.97;;
4462;SDS011;2244;50.200;8.220;2023-06-26T04:57:20;14.40;;;6.50;;
4462;SDS011;2244;50.200;8.220;2023-06-26T04:59:48;14.40;;;6.60;;
4462;SDS011;2244;50.200;8.220;2023-06-26T05:02:18;12.40;;;5.93;;
4462;SDS011;2244;50.200;8.220;2023-06-26T05:04:46;12.10;;;5.83;;
4462;SDS011;2244;50.200;8.220;2023-06-26T05:07:14;11.80;;;5.67;;
4462;SDS011;2244;50.200;8.220;2023-06-26T05:09:42;12.33;;;6.10;;
4462;SDS011;2244;50.200;8.220;2023-06-26T05:12:09;13.67;;;5.77;;
4462;SDS011;2244;50.200;8.220;2023-06-26T05:14:38;11.83;;;5.60;;
4462;SDS011;2244;50.200;8.220;2023-06-26T05:17:06;12.73;;;5.40;;
4462;SDS011;2244;50.200;8.220;2023-06-26T05:19:33;13.40;;;5.93;;
4462;SDS011;2244;50.200;8.220;2023-06-26T05:22:01;12.73;;;6.10;;
4462;SDS011;2244;50.200;8.220;2023-06-26T05:24:30;12.77;;;5.50;;
4462;SDS011;2244;50.200;8.220;2023-06-26T05:26:58;11.63;;;5.67;;
4462;SDS011;2244;50.200;8.220;2023-06-26T05:29:25;16.60;;;6.23;;
4462;SDS011;2244;50.200;8.220;2023-06-26T05:31:53;12.00;;;5.50;;
4462;SDS011;2244;50.200;8.220;2023-06-26T05:34:20;13.80;;;6.30;;
4462;SDS011;2244;50.200;8.220;2023-06-26T05:36:52;13.03;;;6.10;;
4462;SDS011;2244;50.200;8.220;2023-06-26T05:39:21;12.50;;;6.03;;
4462;SDS011;2244;50.200;8.220;2023-06-26T05:41:49;11.63;;;5.77;;
4462;SDS011;2244;50.200;8.220;2023-06-26T05:44:16;15.30;;;6.90;;
4462;SDS011;2244;50.200;8.220;2023-06-26T05:46:45;14.13;;;7.70;;
4462;SDS011;2244;50.200;8.220;2023-06-26T05:49:13;12.60;;;6.60;;
4462;SDS011;2244;50.200;8.220;2023-06-26T05:51:41;15.00;;;6.50;;
4462;SDS011;2244;50.200;8.220;2023-06-26T05:54:08;11.20;;;5.77;;
4462;SDS011;2244;50.200;8.220;2023-06-26T05:56:37;12.30;;;5.80;;
4462;SDS011;2244;50.200;8.220;2023-06-26T05:59:06;11.77;;;5.90;;
4462;SDS011;2244;50.200;8.220;2023-06-26T06:01:34;13.90;;;6.13;;
4462;SDS011;2244;50.200;8.220;2023-06-26T06:04:03;12.40;;;5.77;;
4462;SDS011;2244;50.200;8.220;2023-06-26T06:06:30;15.17;;;5.87;;
4462;SDS011;2244;50.200;8.220;2023-06-26T06:08:58;13.00;;;6.30;;
4462;SDS011;2244;50.200;8.220;2023-06-26T06:11:25;12.47;;;6.33;;
4462;SDS011;2244;50.200;8.220;2023-06-26T06:13:53;12.27;;;6.13;;
4462;SDS011;2244;50.200;8.220;2023-06-26T06:16:20;11.80;;;5.63;;
4462;SDS011;2244;50.200;8.220;2023-06-26T06:18:48;11.67;;;5.90;;
4462;SDS011;2244;50.200;8.220;2023-06-26T06:21:15;12.67;;;6.63;;
4462;SDS011;2244;50.200;8.220;2023-06-26T06:23:43;12.03;;;6.07;;
4462;SDS011;2244;50.200;8.220;2023-06-26T06:26:10;13.07;;;5.70;;
4462;SDS011;2244;50.200;8.220;2023-06-26T06:28:38;14.20;;;6.63;;
4462;SDS011;2244;50.200;8.220;2023-06-26T06:31:05;12.20;;;6.43;;
4462;SDS011;2244;50.200;8.220;2023-06-26T06:33:33;13.60;;;6.07;;
4462;SDS011;2244;50.200;8.220;2023-06-26T06:36:00;14.63;;;5.90;;
4462;SDS011;2244;50.200;8.220;2023-06-26T06:38:28;13.07;;;7.00;;
4462;SDS011;2244;50.200;8.220;2023-06-26T06:40:55;12.93;;;6.07;;
4462;SDS011;2244;50.200;8.220;2023-06-26T06:43:23;12.10;;;6.40;;
4462;SDS011;2244;50.200;8.220;2023-06-26T06:45:51;17.40;;;6.03;;
4462;SDS011;2244;50.200;8.220;2023-06-26T06:48:19;11.83;;;6.07;;
4462;SDS011;2244;50.200;8.220;2023-06-26T06:50:46;16.13;;;6.17;;
4462;SDS011;2244;50.200;8.220;2023-06-26T06:53:14;12.50;;;5.83;;
4462;SDS011;2244;50.200;8.220;2023-06-26T06:55:41;12.27;;;5.83;;
4462;SDS011;2244;50.200;8.220;2023-06-26T06:58:09;13.43;;;6.07;;
4462;SDS011;2244;50.200;8.220;2023-06-26T07:00:36;11.43;;;5.17;;
4462;SDS011;2244;50.200;8.220;2023-06-26T07:03:04;13.60;;;6.10;;
4462;SDS011;2244;50.200;8.220;2023-06-26T07:05:32;12.53;;;6.13;;
4462;SDS011;2244;50.200;8.220;2023-06-26T07:07:59;12.27;;;6.20;;
4462;SDS011;2244;50.200;8.220;2023-06-26T07:10:28;11.63;;;6.10;;
4462;SDS011;2244;50.200;8.220;2023-06-26T07:12:56;16.03;;;5.73;;
4462;SDS011;2244;50.200;8.220;2023-06-26T07:15:23;16.20;;;5.90;;
4462;SDS011;2244;50.200;8.220;2023-06-26T07:17:52;12.00;;;5.60;;
4462;SDS011;2244;50.200;8.220;2023-06-26T07:20:19;13.47;;;5.53;;
4462;SDS011;2244;50.200;8.220;2023-06-26T07:22:48;11.80;;;5.33;;
4462;SDS011;2244;50.200;8.220;2023-06-26T07:25:15;12.93;;;6.17;;
4462;SDS011;2244;50.200;8.220;2023-06-26T07:27:43;12.07;;;5.50;;
4462;SDS011;2244;50.200;8.220;2023-06-26T07:30:11;13.40;;;5.90;;
4462;SDS011;2244;50.200;8.220;2023-06-26T07:32:39;11.60;;;5.57;;
4462;SDS011;2244;50.200;8.220;2023-06-26T07:35:09;13.20;;;6.00;;
4462;SDS011;2244;50.200;8.220;2023-06-26T07:37:37;12.40;;;5.57;;
4462;SDS011;2244;50.200;8.220;2023-06-26T07:40:04;13.17;;;6.30;;
4462;SDS011;2244;50.200;8.220;2023-06-26T07:42:32;12.50;;;5.90;;
4462;SDS011;2244;50.200;8.220;2023-06-26T07:45:00;13.10;;;6.40;;
4462;SDS011;2244;50.200;8.220;2023-06-26T07:47:28;11.87;;;6.30;;
4462;SDS011;2244;50.200;8.220;2023-06-26T07:49:56;11.97;;;5.80;;
4462;SDS011;2244;50.200;8.220;2023-06-26T07:52:23;13.13;;;6.27;;
4462;SDS011;2244;50.200;8.220;2023-06-26T07:54:50;12.73;;;6.20;;
4462;SDS011;2244;50.200;8.220;2023-06-26T07:57:18;15.00;;;6.10;;
4462;SDS011;2244;50.200;8.220;2023-06-26T07:59:45;12.10;;;6.20;;
4462;SDS011;2244;50.200;8.220;2023-06-26T08:02:13;15.47;;;6.50;;
4462;SDS011;2244;50.200;8.220;2023-06-26T08:04:40;14.90;;;7.17;;
4462;SDS011;2244;50.200;8.220;2023-06-26T08:07:08;17.50;;;6.20;;
4462;SDS011;2244;50.200;8.220;2023-06-26T08:09:36;14.53;;;6.70;;
4462;SDS011;2244;50.200;8.220;2023-06-26T08:12:03;13.40;;;7.10;;
4462;SDS011;2244;50.200;8.220;2023-06-26T08:14:32;14.10;;;6.30;;
4462;SDS011;2244;50.200;8.220;2023-06-26T08:17:00;14.10;;;5.97;;
4462;SDS011;2244;50.200;8.220;2023-06-26T08:19:27;12.97;;;6.50;;
4462;SDS011;2244;50.200;8.220;2023-06-26T08:21:54;16.13;;;6.93;;
4462;SDS011;2244;50.200;8.220;2023-06-26T08:24:22;12.43;;;6.80;;
4462;SDS011;2244;50.200;8.220;2023-06-26T08:26:49;12.27;;;6.50;;
4462;SDS011;2244;50.200;8.220;2023-06-26T08:29:17;15.30;;;6.13;;
4462;SDS011;2244;50.200;8.220;2023-06-26T08:31:44;13.13;;;6.43;;
4462;SDS011;2244;50.200;8.220;2023-06-26T08:34:12;13.40;;;6.97;;
4462;SDS011;2244;50.200;8.220;2023-06-26T08:36:39;17.13;;;6.40;;
4462;SDS011;2244;50.200;8.220;2023-06-26T08:39:07;13.13;;;6.00;;
4462;SDS011;2244;50.200;8.220;2023-06-26T08:41:35;14.43;;;7.20;;
4462;SDS011;2244;50.200;8.220;2023-06-26T08:44:02;14.50;;;7.17;;
4462;SDS011;2244;50.200;8.220;2023-06-26T08:46:31;12.57;;;6.27;;
4462;SDS011;2244;50.200;8.220;2023-06-26T08:49:05;15.30;;;6.70;;
4462;SDS011;2244;50.200;8.220;2023-06-26T08:51:31;13.20;;;6.87;;
4462;SDS011;2244;50.200;8.220;2023-06-26T08:54:00;13.00;;;6.93;;
4462;SDS011;2244;50.200;8.220;2023-06-26T08:56:32;12.57;;;6.70;;
4462;SDS011;2244;50.200;8.220;2023-06-26T08:58:57;13.67;;;6.90;;
4462;SDS011;2244;50.200;8.220;2023-06-26T09:01:25;14.03;;;6.13;;
4462;SDS011;2244;50.200;8.220;2023-06-26T09:03:52;12.20;;;6.30;;
4462;SDS011;2244;50.200;8.220;2023-06-26T09:06:20;11.63;;;5.87;;
4462;SDS011;2244;50.200;8.220;2023-06-26T09:08:47;13.83;;;5.87;;
4462;SDS011;2244;50.200;8.220;2023-06-26T09:11:14;13.00;;;5.53;;
4462;SDS011;2244;50.200;8.220;2023-06-26T09:13:42;13.97;;;6.00;;
4462;SDS011;2244;50.200;8.220;2023-06-26T09:16:10;13.67;;;5.40;;
4462;SDS011;2244;50.200;8.220;2023-06-26T09:18:40;12.93;;;5.40;;
4462;SDS011;2244;50.200;8.220;2023-06-26T09:21:08;11.77;;;6.20;;
4462;SDS011;2244;50.200;8.220;2023-06-26T09:23:36;11.30;;;5.60;;
4462;SDS011;2244;50.200;8.220;2023-06-26T09:26:06;13.37;;;5.00;;
4462;SDS011;2244;50.200;8.220;2023-06-26T09:28:34;11.93;;;4.87;;
4462;SDS011;2244;50.200;8.220;2023-06-26T09:31:03;12.43;;;5.17;;
4462;SDS011;2244;50.200;8.220;2023-06-26T09:33:33;12.63;;;5.37;;
4462;SDS011;2244;50.200;8.220;2023-06-26T09:36:07;11.60;;;4.97;;
4462;SDS011;2244;50.200;8.220;2023-06-26T09:38:31;12.87;;;4.50;;
4462;SDS011;2244;50.200;8.220;2023-06-26T09:40:58;12.37;;;4.73;;
4462;SDS011;2244;50.200;8.220;2023-06-26T09:43:26;11.70;;;4.90;;
4462;SDS011;2244;50.200;8.220;2023-06-26T09:45:54;10.97;;;5.10;;
4462;SDS011;2244;50.200;8.220;2023-06-26T09:48:21;11.83;;;5.00;;
4462;SDS011;2244;50.200;8.220;2023-06-26T09:50:49;13.73;;;5.63;;
4462;SDS011;2244;50.200;8.220;2023-06-26T09:53:18;12.73;;;5.13;;
4462;SDS011;2244;50.200;8.220;2023-06-26T09:55:47;11.33;;;5.40;;
4462;SDS011;2244;50.200;8.220;2023-06-26T09:58:14;12.87;;;5.27;;
4462;SDS011;2244;50.200;8.220;2023-06-26T10:00:43;13.50;;;5.73;;
4462;SDS011;2244;50.200;8.220;2023-06-26T10:03:11;12.37;;;5.53;;
4462;SDS011;2244;50.200;8.220;2023-06-26T10:05:41;15.57;;;5.87;;
4462;SDS011;2244;50.200;8.220;2023-06-26T10:08:10;16.00;;;5.70;;
4462;SDS011;2244;50.200;8.220;2023-06-26T10:10:40;16.63;;;5.93;;
4462;SDS011;2244;50.200;8.220;2023-06-26T10:13:09;13.97;;;5.43;;
4462;SDS011;2244;50.200;8.220;2023-06-26T10:15:37;14.90;;;6.20;;
4462;SDS011;2244;50.200;8.220;2023-06-26T10:18:05;14.77;;;6.00;;
4462;SDS011;2244;50.200;8.220;2023-06-26T10:20:33;12.40;;;5.00;;
4462;SDS011;2244;50.200;8.220;2023-06-26T10:23:01;14.70;;;5.70;;
4462;SDS011;2244;50.200;8.220;2023-06-26T10:25:30;13.73;;;5.10;;
4462;SDS011;2244;50.200;8.220;2023-06-26T10:27:59;14.30;;;5.80;;
4462;SDS011;2244;50.200;8.220;2023-06-26T10:30:28;17.27;;;6.40;;
4462;SDS011;2244;50.200;8.220;2023-06-26T10:32:56;13.93;;;6.43;;
4462;SDS011;2244;50.200;8.220;2023-06-26T10:35:24;15.10;;;5.80;;
4462;SDS011;2244;50.200;8.220;2023-06-26T10:37:52;14.17;;;5.50;;
4462;SDS011;2244;50.200;8.220;2023-06-26T10:40:22;12.53;;;5.43;;
4462;SDS011;2244;50.200;8.220;2023-06-26T10:42:50;13.67;;;6.57;;
4462;SDS011;2244;50.200;8.220;2023-06-26T10:45:19;12.57;;;6.07;;
4462;SDS011;2244;50.200;8.220;2023-06-26T10:47:47;11.83;;;5.50;;
4462;SDS011;2244;50.200;8.220;2023-06-26T10:50:18;12.33;;;5.57;;
4462;SDS011;2244;50.200;8.220;2023-06-26T10:55:33;12.10;;;5.27;;
4462;SDS011;2244;50.200;8.220;2023-06-26T10:58:01;12.17;;;5.00;;
4462;SDS011;2244;50.200;8.220;2023-06-26T11:00:29;12.10;;;5.17;;
4462;SDS011;2244;50.200;8.220;2023-06-26T11:02:57;11.20;;;5.40;;
4462;SDS011;2244;50.200;8.220;2023-06-26T11:05:27;13.70;;;5.50;;
4462;SDS011;2244;50.200;8.220;2023-06-26T11:08:05;12.90;;;5.73;;
4462;SDS011;2244;50.200;8.220;2023-06-26T11:10:51;12.90;;;6.30;;
4462;SDS011;2244;50.200;8.220;2023-06-26T11:13:20;12.60;;;5.20;;
4462;SDS011;2244;50.200;8.220;2023-06-26T11:15:49;13.80;;;5.90;;
4462;SDS011;2244;50.200;8.220;2023-06-26T11:18:16;16.63;;;5.30;;
4462;SDS011;2244;50.200;8.220;2023-06-26T11:20:44;17.50;;;7.50;;
4462;SDS011;2244;50.200;8.220;2023-06-26T11:23:12;13.50;;;5.67;;
4462;SDS011;2244;50.200;8.220;2023-06-26T11:25:40;11.63;;;6.20;;
4462;SDS011;2244;50.200;8.220;2023-06-26T11:28:10;13.80;;;6.13;;
4462;SDS011;2244;50.200;8.220;2023-06-26T11:30:38;14.43;;;5.93;;
4462;SDS011;2244;50.200;8.220;2023-06-26T11:33:08;13.07;;;6.47;;
4462;SDS011;2244;50.200;8.220;2023-06-26T11:35:36;14.77;;;6.70;;
4462;SDS011;2244;50.200;8.220;2023-06-26T11:38:05;12.47;;;6.10;;
4462;SDS011;2244;50.200;8.220;2023-06-26T11:40:32;12.20;;;6.73;;
4462;SDS011;2244;50.200;8.220;2023-06-26T11:43:00;13.17;;;5.70;;
4462;SDS011;2244;50.200;8.220;2023-06-26T11:45:30;13.70;;;5.63;;
4462;SDS011;2244;50.200;8.220;2023-06-26T11:47:59;14.57;;;6.33;;
4462;SDS011;2244;50.200;8.220;2023-06-26T11:50:27;13.37;;;5.90;;
4462;SDS011;2244;50.200;8.220;2023-06-26T11:52:58;13.50;;;5.33;;
4462;SDS011;2244;50.200;8.220;2023-06-26T11:55:27;16.83;;;6.60;;
4462;SDS011;2244;50.200;8.220;2023-06-26T11:57:55;15.90;;;6.20;;
4462;SDS011;2244;50.200;8.220;2023-06-26T12:00:23;12.67;;;6.27;;
4462;SDS011;2244;50.200;8.220;2023-06-26T12:02:51;14.97;;;5.70;;
4462;SDS011;2244;50.200;8.220;2023-06-26T12:05:20;13.20;;;6.07;;
4462;SDS011;2244;50.200;8.220;2023-06-26T12:07:47;14.97;;;6.10;;
4462;SDS011;2244;50.200;8.220;2023-06-26T12:10:16;16.33;;;5.97;;
4462;SDS011;2244;50.200;8.220;2023-06-26T12:12:45;12.43;;;5.50;;
4462;SDS011;2244;50.200;8.220;2023-06-26T12:15:14;11.53;;;5.03;;
4462;SDS011;2244;50.200;8.220;2023-06-26T12:17:41;21.87;;;5.57;;
4462;SDS011;2244;50.200;8.220;2023-06-26T12:20:20;14.97;;;5.50;;
4462;SDS011;2244;50.200;8.220;2023-06-26T12:22:38;16.27;;;5.27;;
4462;SDS011;2244;50.200;8.220;2023-06-26T12:25:06;13.20;;;4.73;;
4462;SDS011;2244;50.200;8.220;2023-06-26T12:27:35;12.87;;;5.20;;
4462;SDS011;2244;50.200;8.220;2023-06-26T12:30:03;13.03;;;5.27;;
4462;SDS011;2244;50.200;8.220;2023-06-26T12:32:32;21.50;;;5.67;;
4462;SDS011;2244;50.200;8.220;2023-06-26T12:34:59;12.23;;;5.10;;
4462;SDS011;2244;50.200;8.220;2023-06-26T12:37:27;13.10;;;5.07;;
4462;SDS011;2244;50.200;8.220;2023-06-26T12:39:56;12.60;;;4.67;;
4462;SDS011;2244;50.200;8.220;2023-06-26T12:42:28;13.63;;;4.60;;
4462;SDS011;2244;50.200;8.220;2023-06-26T12:44:52;14.53;;;4.83;;
4462;SDS011;2244;50.200;8.220;2023-06-26T12:47:26;17.17;;;5.57;;
4462;SDS011;2244;50.200;8.220;2023-06-26T12:49:54;10.37;;;4.03;;
4462;SDS011;2244;50.200;8.220;2023-06-26T12:52:22;12.50;;;4.50;;
4462;SDS011;2244;50.200;8.220;2023-06-26T12:54:53;15.87;;;4.80;;
4462;SDS011;2244;50.200;8.220;2023-06-26T12:57:21;15.30;;;4.73;;
4462;SDS011;2244;50.200;8.220;2023-06-26T12:59:48;12.40;;;4.50;;
4462;SDS011;2244;50.200;8.220;2023-06-26T13:02:16;17.10;;;4.67;;
4462;SDS011;2244;50.200;8.220;2023-06-26T13:04:44;14.80;;;4.27;;
4462;SDS011;2244;50.200;8.220;2023-06-26T13:07:12;12.57;;;4.40;;
4462;SDS011;2244;50.200;8.220;2023-06-26T13:09:39;12.50;;;4.47;;
4462;SDS011;2244;50.200;8.220;2023-06-26T13:12:07;12.87;;;3.67;;
4462;SDS011;2244;50.200;8.220;2023-06-26T13:14:35;13.67;;;3.87;;
4462;SDS011;2244;50.200;8.220;2023-06-26T13:17:03;14.03;;;4.17;;
4462;SDS011;2244;50.200;8.220;2023-06-26T13:19:33;15.97;;;3.60;;
4462;SDS011;2244;50.200;8.220;2023-06-26T13:22:01;12.97;;;3.57;;
4462;SDS011;2244;50.200;8.220;2023-06-26T13:24:29;15.03;;;3.80;;
4462;SDS011;2244;50.200;8.220;2023-06-26T13:26:56;14.63;;;3.70;;
4462;SDS011;2244;50.200;8.220;2023-06-26T13:29:24;13.07;;;3.63;;
4462;SDS011;2244;50.200;8.220;2023-06-26T13:31:51;11.50;;;3.40;;
4462;SDS011;2244;50.200;8.220;2023-06-26T13:34:21;12.83;;;3.60;;
4462;SDS011;2244;50.200;8.220;2023-06-26T13:36:49;12.23;;;3.20;;
4462;SDS011;2244;50.200;8.220;2023-06-26T13:39:17;15.23;;;3.80;;
4462;SDS011;2244;50.200;8.220;2023-06-26T13:41:45;12.63;;;3.37;;
4462;SDS011;2244;50.200;8.220;2023-06-26T13:44:12;10.23;;;3.20;;
4462;SDS011;2244;50.200;8.220;2023-06-26T13:46:41;14.40;;;3.37;;
4462;SDS011;2244;50.200;8.220;2023-06-26T13:49:09;12.40;;;3.13;;
4462;SDS011;2244;50.200;8.220;2023-06-26T13:51:37;10.37;;;2.90;;
4462;SDS011;2244;50.200;8.220;2023-06-26T13:54:04;12.17;;;3.10;;
4462;SDS011;2244;50.200;8.220;2023-06-26T13:56:32;11.37;;;2.53;;
4462;SDS011;2244;50.200;8.220;2023-06-26T13:58:59;13.83;;;3.03;;
4462;SDS011;2244;50.200;8.220;2023-06-26T14:01:27;13.60;;;2.93;;
4462;SDS011;2244;50.200;8.220;2023-06-26T14:03:54;14.33;;;2.83;;
4462;SDS011;2244;50.200;8.220;2023-06-26T14:06:22;10.27;;;2.80;;
4462;SDS011;2244;50.200;8.220;2023-06-26T14:08:49;10.70;;;2.90;;
4462;SDS011;2244;50.200;8.220;2023-06-26T14:11:17;11.53;;;3.13;;
4462;SDS011;2244;50.200;8.220;2023-06-26T14:13:44;13.07;;;2.97;;
4462;SDS011;2244;50.200;8.220;2023-06-26T14:16:12;16.33;;;3.00;;
4462;SDS011;2244;50.200;8.220;2023-06-26T14:18:41;11.40;;;2.27;;
4462;SDS011;2244;50.200;8.220;2023-06-26T14:21:08;13.50;;;2.27;;
4462;SDS011;2244;50.200;8.220;2023-06-26T14:23:36;11.63;;;2.50;;
4462;SDS011;2244;50.200;8.220;2023-06-26T14:26:03;11.20;;;2.27;;
4462;SDS011;2244;50.200;8.220;2023-06-26T14:28:30;12.00;;;2.50;;
4462;SDS011;2244;50.200;8.220;2023-06-26T14:30:58;10.70;;;2.43;;
4462;SDS011;2244;50.200;8.220;2023-06-26T14:33:26;9.83;;;2.00;;
4462;SDS011;2244;50.200;8.220;2023-06-26T14:35:53;13.67;;;2.17;;
4462;SDS011;2244;50.200;8.220;2023-06-26T14:38:21;17.03;;;2.40;;
4462;SDS011;2244;50.200;8.220;2023-06-26T14:40:48;14.60;;;2.70;;
4462;SDS011;2244;50.200;8.220;2023-06-26T14:43:16;11.60;;;2.53;;
4462;SDS011;2244;50.200;8.220;2023-06-26T14:45:44;10.10;;;2.10;;
4462;SDS011;2244;50.200;8.220;2023-06-26T14:48:12;9.37;;;2.20;;
4462;SDS011;2244;50.200;8.220;2023-06-26T14:50:40;10.30;;;2.53;;
4462;SDS011;2244;50.200;8.220;2023-06-26T14:53:08;11.57;;;2.00;;
4462;SDS011;2244;50.200;8.220;2023-06-26T14:55:35;12.90;;;2.60;;
4462;SDS011;2244;50.200;8.220;2023-06-26T14:58:03;13.40;;;2.30;;
4462;SDS011;2244;50.200;8.220;2023-06-26T15:00:30;11.63;;;2.40;;
4462;SDS011;2244;50.200;8.220;2023-06-26T15:02:58;11.33;;;2.50;;
4462;SDS011;2244;50.200;8.220;2023-06-26T15:05:26;10.77;;;2.37;;
4462;SDS011;2244;50.200;8.220;2023-06-26T15:07:53;11.40;;;2.20;;
4462;SDS011;2244;50.200;8.220;2023-06-26T15:10:20;9.83;;;2.30;;
4462;SDS011;2244;50.200;8.220;2023-06-26T15:12:48;14.07;;;2.40;;
4462;SDS011;2244;50.200;8.220;2023-06-26T15:15:15;11.30;;;2.53;;